Time,TemperatureF,DewpointF,PressureIn,WindDirection,WindDirectionDegrees,WindSpeedMPH,WindSpeedGustMPH,Humidity,HourlyPrecipIn,Conditions,Clouds,dailyrainin,SolarRadiationWatts/m^2,SoftwareType,DateUTC
2013-02-26 00:00:00,32.0,12.0,29.88,NNE,33,2.0,-999.0,42,-99.99,,,-99.99,0.000000,,2013-02-26 07:00:00,
2013-02-26 00:52:00,32.0,12.0,29.88,NNE,33,2.0,-999.0,42,-99.99,,,-99.99,0.000000,,2013-02-26 07:52:00,
2013-02-26 01:00:00,31.0,11.0,29.88,NNW,334,3.0,7.0,43,-99.99,,,-99.99,0.000000,,2013-02-26 08:00:00,
2013-02-26 01:52:00,31.0,11.0,29.88,NNW,334,3.0,7.0,43,-99.99,,,-99.99,0.000000,,2013-02-26 08:52:00,
2013-02-26 02:00:00,24.0,14.0,29.87,SSE,166,1.0,8.0,65,-99.99,,,-99.99,0.000000,,2013-02-26 09:00:00,
2013-02-26 02:52:00,24.0,14.0,29.87,SSE,166,1.0,8.0,65,-99.99,,,-99.99,0.000000,,2013-02-26 09:52:00,
2013-02-26 03:00:00,21.0,15.0,29.86,East,94,1.0,3.0,76,-99.99,,,-99.99,0.000000,,2013-02-26 10:00:00,
2013-02-26 03:52:00,21.0,15.0,29.86,East,94,1.0,3.0,76,-99.99,,,-99.99,0.000000,,2013-02-26 10:52:00,
2013-02-26 04:00:00,18.0,14.0,29.85,ESE,106,1.0,5.0,83,-99.99,,,-99.99,0.010000,,2013-02-26 11:00:00,
2013-02-26 04:52:00,18.0,14.0,29.85,ESE,106,1.0,5.0,83,-99.99,,,-99.99,0.010000,,2013-02-26 11:52:00,
2013-02-26 05:00:00,16.0,13.0,29.86,SSW,211,0.0,5.0,86,-99.99,,,-99.99,0.020000,,2013-02-26 12:00:00,
2013-02-26 05:53:00,16.0,13.0,29.86,SSW,211,0.0,5.0,86,-99.99,,,-99.99,0.020000,,2013-02-26 12:53:00,
2013-02-26 06:00:00,16.0,13.0,29.85,North,3,0.0,3.0,87,-99.99,,,-99.99,0.040000,,2013-02-26 13:00:00,
2013-02-26 06:52:00,16.0,13.0,29.85,North,3,0.0,3.0,87,-99.99,,,-99.99,0.040000,,2013-02-26 13:52:00,
2013-02-26 07:00:00,15.0,14.0,29.85,North,358,0.0,2.0,92,-99.99,,,-99.99,3.870000,,2013-02-26 14:00:00,
2013-02-26 07:52:00,15.0,14.0,29.85,North,358,0.0,2.0,92,-99.99,,,-99.99,3.870000,,2013-02-26 14:52:00,
2013-02-26 08:00:00,25.0,16.0,29.85,North,10,2.0,4.0,69,-99.99,,,-99.99,126.699997,,2013-02-26 15:00:00,
2013-02-26 08:52:00,25.0,16.0,29.85,North,10,2.0,4.0,69,-99.99,,,-99.99,126.699997,,2013-02-26 15:52:00,
2013-02-26 09:00:00,30.0,15.0,29.83,WNW,282,1.0,5.0,52,-99.99,,,-99.99,328.600006,,2013-02-26 16:00:00,
2013-02-26 09:52:00,30.0,15.0,29.83,WNW,282,1.0,5.0,52,-99.99,,,-99.99,328.600006,,2013-02-26 16:52:00,
2013-02-26 10:00:00,35.0,11.0,29.82,WSW,258,2.0,5.0,36,-99.99,,,-99.99,510.299988,,2013-02-26 17:00:00,
2013-02-26 10:52:00,35.0,11.0,29.82,WSW,258,2.0,5.0,36,-99.99,,,-99.99,510.299988,,2013-02-26 17:52:00,
2013-02-26 11:00:00,40.0,9.0,29.81,ENE,78,2.0,5.0,27,-99.99,,,-99.99,652.000000,,2013-02-26 18:00:00,
2013-02-26 11:52:00,40.0,9.0,29.81,ENE,78,2.0,5.0,27,-99.99,,,-99.99,652.000000,,2013-02-26 18:52:00,
2013-02-26 12:00:00,42.0,1.0,29.79,West,264,10.0,10.0,18,-99.99,,,-99.99,742.299988,,2013-02-26 19:00:00,
2013-02-26 12:52:00,42.0,1.0,29.79,West,264,10.0,10.0,18,-99.99,,,-99.99,742.299988,,2013-02-26 19:52:00,
2013-02-26 14:00:00,41.0,2.0,29.79,WSW,257,18.0,24.0,19,-99.99,,,-99.99,713.400024,,2013-02-26 21:00:00,
2013-02-26 14:51:00,41.0,2.0,29.79,WSW,257,18.0,24.0,19,-99.99,,,-99.99,713.400024,,2013-02-26 21:51:00,
2013-02-26 15:00:00,41.0,0.0,29.80,WSW,245,18.0,-999.0,18,-99.99,,,-99.99,656.099976,,2013-02-26 22:00:00,
2013-02-26 15:52:00,41.0,0.0,29.80,WSW,245,18.0,-999.0,18,-99.99,,,-99.99,656.099976,,2013-02-26 22:52:00,
2013-02-26 16:00:00,39.0,3.0,29.82,West,261,17.0,30.0,22,-99.99,,,-99.99,500.500000,,2013-02-26 23:00:00,
2013-02-26 16:52:00,39.0,3.0,29.82,West,261,17.0,30.0,22,-99.99,,,-99.99,500.500000,,2013-02-26 23:52:00,
2013-02-26 17:00:00,37.0,-2.0,29.84,West,266,15.0,-999.0,19,-99.99,,,-99.99,272.600006,,2013-02-27 00:00:00,
2013-02-26 17:52:00,37.0,-2.0,29.84,West,266,15.0,-999.0,19,-99.99,,,-99.99,272.600006,,2013-02-27 00:52:00,
2013-02-26 18:00:00,35.0,-2.0,29.84,West,263,14.0,26.0,20,-99.99,,,-99.99,70.940002,,2013-02-27 01:00:00,
2013-02-26 18:52:00,35.0,-2.0,29.84,West,263,14.0,26.0,20,-99.99,,,-99.99,70.940002,,2013-02-27 01:52:00,
2013-02-26 19:00:00,34.0,0.0,29.88,West,273,14.0,21.0,23,-99.99,,,-99.99,0.330000,,2013-02-27 02:00:00,
2013-02-26 19:52:00,34.0,0.0,29.88,West,273,14.0,21.0,23,-99.99,,,-99.99,0.330000,,2013-02-27 02:52:00,
2013-02-26 20:00:00,33.0,4.0,29.92,West,275,11.0,23.0,28,-99.99,,,-99.99,0.000000,,2013-02-27 03:00:00,
2013-02-26 20:52:00,33.0,4.0,29.92,West,275,11.0,23.0,28,-99.99,,,-99.99,0.000000,,2013-02-27 03:52:00,
2013-02-26 21:00:00,32.0,6.0,29.96,WNW,287,7.0,19.0,33,-99.99,,,-99.99,0.000000,,2013-02-27 04:00:00,
2013-02-26 21:52:00,32.0,6.0,29.96,WNW,287,7.0,19.0,33,-99.99,,,-99.99,0.000000,,2013-02-27 04:52:00,
2013-02-26 22:00:00,30.0,9.0,29.98,WNW,300,7.0,15.0,40,-99.99,,,-99.99,0.000000,,2013-02-27 05:00:00,
2013-02-26 22:52:00,30.0,9.0,29.98,WNW,300,7.0,15.0,40,-99.99,,,-99.99,0.000000,,2013-02-27 05:52:00,
2013-02-26 23:00:00,30.0,11.0,30.00,WNW,299,7.0,14.0,46,-99.99,,,-99.99,0.000000,,2013-02-27 06:00:00,
2013-02-26 23:52:00,30.0,11.0,30.00,WNW,299,7.0,14.0,46,-99.99,,,-99.99,0.000000,,2013-02-27 06:52:00,